sensor_id;sensor_type;location;lat;lon;timestamp;P1;durP1;ratioP1;P2;durP2;ratioP2
10142;SDS011;5112;54.088;13.446;2022-12-18T00:01:23;20.33;;;14.77;;
10142;SDS011;5112;54.088;13.446;2022-12-18T00:11:26;22.05;;;15.55;;
10142;SDS011;5112;54.088;13.446;2022-12-18T00:21:31;22.40;;;15.85;;
10142;SDS011;5112;54.088;13.446;2022-12-18T00:31:33;24.47;;;16.97;;
10142;SDS011;5112;54.088;13.446;2022-12-18T00:41:37;26.03;;;17.93;;
10142;SDS011;5112;54.088;13.446;2022-12-18T00:51:56;26.47;;;18.27;;
10142;SDS011;5112;54.088;13.446;2022-12-18T01:01:59;26.40;;;17.65;;
10142;SDS011;5112;54.088;13.446;2022-12-18T01:12:01;28.37;;;18.97;;
10142;SDS011;5112;54.088;13.446;2022-12-18T01:22:03;32.30;;;19.80;;
10142;SDS011;5112;54.088;13.446;2022-12-18T01:32:05;33.63;;;20.07;;
10142;SDS011;5112;54.088;13.446;2022-12-18T01:42:10;31.53;;;19.37;;
10142;SDS011;5112;54.088;13.446;2022-12-18T01:52:14;31.85;;;18.55;;
10142;SDS011;5112;54.088;13.446;2022-12-18T02:02:19;22.93;;;12.17;;
10142;SDS011;5112;54.088;13.446;2022-12-18T02:12:22;29.33;;;18.30;;
10142;SDS011;5112;54.088;13.446;2022-12-18T02:22:29;29.08;;;18.02;;
10142;SDS011;5112;54.088;13.446;2022-12-18T02:32:39;27.80;;;16.65;;
10142;SDS011;5112;54.088;13.446;2022-12-18T02:42:42;28.20;;;17.47;;
10142;SDS011;5112;54.088;13.446;2022-12-18T02:52:47;29.00;;;17.77;;
10142;SDS011;5112;54.088;13.446;2022-12-18T03:02:57;27.52;;;17.73;;
10142;SDS011;5112;54.088;13.446;2022-12-18T03:13:05;29.13;;;18.02;;
10142;SDS011;5112;54.088;13.446;2022-12-18T03:23:11;29.53;;;17.97;;
10142;SDS011;5112;54.088;13.446;2022-12-18T03:33:19;31.33;;;18.42;;
10142;SDS011;5112;54.088;13.446;2022-12-18T03:43:28;27.13;;;17.73;;
10142;SDS011;5112;54.088;13.446;2022-12-18T03:53:39;25.57;;;16.53;;
10142;SDS011;5112;54.088;13.446;2022-12-18T04:03:47;24.17;;;15.97;;
10142;SDS011;5112;54.088;13.446;2022-12-18T04:13:52;24.37;;;15.50;;
10142;SDS011;5112;54.088;13.446;2022-12-18T04:23:57;23.10;;;15.32;;
10142;SDS011;5112;54.088;13.446;2022-12-18T04:34:00;25.50;;;15.17;;
10142;SDS011;5112;54.088;13.446;2022-12-18T04:44:02;20.90;;;14.95;;
10142;SDS011;5112;54.088;13.446;2022-12-18T04:54:05;22.70;;;14.50;;
10142;SDS011;5112;54.088;13.446;2022-12-18T05:04:07;24.77;;;14.90;;
10142;SDS011;5112;54.088;13.446;2022-12-18T05:14:10;21.07;;;14.10;;
10142;SDS011;5112;54.088;13.446;2022-12-18T05:24:11;22.27;;;14.63;;
10142;SDS011;5112;54.088;13.446;2022-12-18T05:34:15;22.77;;;14.57;;
10142;SDS011;5112;54.088;13.446;2022-12-18T05:44:16;21.35;;;13.65;;
10142;SDS011;5112;54.088;13.446;2022-12-18T05:54:20;21.50;;;14.27;;
10142;SDS011;5112;54.088;13.446;2022-12-18T06:04:21;21.87;;;14.00;;
10142;SDS011;5112;54.088;13.446;2022-12-18T06:14:24;22.70;;;14.80;;
10142;SDS011;5112;54.088;13.446;2022-12-18T06:24:26;23.65;;;15.25;;
10142;SDS011;5112;54.088;13.446;2022-12-18T06:34:29;23.40;;;15.37;;
10142;SDS011;5112;54.088;13.446;2022-12-18T06:44:33;24.27;;;15.00;;
10142;SDS011;5112;54.088;13.446;2022-12-18T06:54:36;23.23;;;14.77;;
10142;SDS011;5112;54.088;13.446;2022-12-18T07:04:37;24.00;;;10.77;;
10142;SDS011;5112;54.088;13.446;2022-12-18T07:14:40;19.10;;;9.53;;
10142;SDS011;5112;54.088;13.446;2022-12-18T07:24:42;22.00;;;10.63;;
10142;SDS011;5112;54.088;13.446;2022-12-18T07:34:45;23.37;;;10.93;;
10142;SDS011;5112;54.088;13.446;2022-12-18T07:44:47;21.60;;;11.03;;
10142;SDS011;5112;54.088;13.446;2022-12-18T07:54:50;25.30;;;11.97;;
10142;SDS011;5112;54.088;13.446;2022-12-18T08:04:51;25.30;;;11.60;;
10142;SDS011;5112;54.088;13.446;2022-12-18T08:14:55;25.63;;;12.30;;
10142;SDS011;5112;54.088;13.446;2022-12-18T08:24:56;30.37;;;13.13;;
10142;SDS011;5112;54.088;13.446;2022-12-18T08:35:00;25.17;;;12.13;;
10142;SDS011;5112;54.088;13.446;2022-12-18T08:45:01;27.47;;;13.63;;
10142;SDS011;5112;54.088;13.446;2022-12-18T08:55:06;30.50;;;13.50;;
10142;SDS011;5112;54.088;13.446;2022-12-18T09:05:09;32.43;;;14.80;;
10142;SDS011;5112;54.088;13.446;2022-12-18T09:15:12;33.57;;;13.93;;
10142;SDS011;5112;54.088;13.446;2022-12-18T09:25:13;36.77;;;15.03;;
10142;SDS011;5112;54.088;13.446;2022-12-18T09:35:16;27.83;;;13.37;;
10142;SDS011;5112;54.088;13.446;2022-12-18T09:45:18;33.03;;;14.23;;
10142;SDS011;5112;54.088;13.446;2022-12-18T09:55:23;28.70;;;13.97;;
10142;SDS011;5112;54.088;13.446;2022-12-18T10:05:30;28.67;;;14.03;;
10142;SDS011;5112;54.088;13.446;2022-12-18T10:15:42;28.50;;;14.07;;
10142;SDS011;5112;54.088;13.446;2022-12-18T10:25:55;30.53;;;15.13;;
10142;SDS011;5112;54.088;13.446;2022-12-18T10:36:04;31.23;;;14.83;;
10142;SDS011;5112;54.088;13.446;2022-12-18T10:46:12;30.53;;;14.40;;
10142;SDS011;5112;54.088;13.446;2022-12-18T10:56:20;30.53;;;14.63;;
10142;SDS011;5112;54.088;13.446;2022-12-18T11:06:23;27.67;;;12.67;;
10142;SDS011;5112;54.088;13.446;2022-12-18T11:16:27;26.37;;;13.33;;
10142;SDS011;5112;54.088;13.446;2022-12-18T11:26:33;27.73;;;13.33;;
10142;SDS011;5112;54.088;13.446;2022-12-18T11:36:38;22.90;;;13.40;;
10142;SDS011;5112;54.088;13.446;2022-12-18T11:46:45;25.43;;;12.47;;
10142;SDS011;5112;54.088;13.446;2022-12-18T11:56:53;23.90;;;12.70;;
10142;SDS011;5112;54.088;13.446;2022-12-18T12:07:01;26.17;;;12.53;;
10142;SDS011;5112;54.088;13.446;2022-12-18T12:17:17;24.73;;;13.33;;
10142;SDS011;5112;54.088;13.446;2022-12-18T12:27:29;27.03;;;13.20;;
10142;SDS011;5112;54.088;13.446;2022-12-18T12:37:46;23.57;;;13.20;;
10142;SDS011;5112;54.088;13.446;2022-12-18T12:47:54;24.60;;;12.90;;
10142;SDS011;5112;54.088;13.446;2022-12-18T12:58:02;28.80;;;15.00;;
10142;SDS011;5112;54.088;13.446;2022-12-18T13:08:08;24.67;;;14.17;;
10142;SDS011;5112;54.088;13.446;2022-12-18T13:18:13;26.23;;;14.43;;
10142;SDS011;5112;54.088;13.446;2022-12-18T13:28:50;25.67;;;14.20;;
10142;SDS011;5112;54.088;13.446;2022-12-18T13:49:38;26.50;;;13.07;;
10142;SDS011;5112;54.088;13.446;2022-12-18T13:59:40;22.17;;;13.20;;
10142;SDS011;5112;54.088;13.446;2022-12-18T14:09:44;22.70;;;12.10;;
10142;SDS011;5112;54.088;13.446;2022-12-18T14:19:50;22.10;;;11.63;;
10142;SDS011;5112;54.088;13.446;2022-12-18T14:29:53;24.37;;;12.73;;
10142;SDS011;5112;54.088;13.446;2022-12-18T14:39:57;24.53;;;13.53;;
10142;SDS011;5112;54.088;13.446;2022-12-18T14:50:00;26.37;;;13.60;;
10142;SDS011;5112;54.088;13.446;2022-12-18T15:00:05;24.23;;;13.80;;
10142;SDS011;5112;54.088;13.446;2022-12-18T15:10:11;24.77;;;13.17;;
10142;SDS011;5112;54.088;13.446;2022-12-18T15:20:14;35.15;;;22.20;;
10142;SDS011;5112;54.088;13.446;2022-12-18T15:30:19;31.58;;;20.15;;
10142;SDS011;5112;54.088;13.446;2022-12-18T15:40:23;27.65;;;18.92;;
10142;SDS011;5112;54.088;13.446;2022-12-18T15:50:26;27.20;;;15.52;;
10142;SDS011;5112;54.088;13.446;2022-12-18T16:00:28;29.53;;;20.03;;
10142;SDS011;5112;54.088;13.446;2022-12-18T16:10:31;26.33;;;18.50;;
10142;SDS011;5112;54.088;13.446;2022-12-18T16:20:33;26.90;;;18.33;;
10142;SDS011;5112;54.088;13.446;2022-12-18T16:30:36;26.10;;;18.02;;
10142;SDS011;5112;54.088;13.446;2022-12-18T16:40:37;26.63;;;18.65;;
10142;SDS011;5112;54.088;13.446;2022-12-18T16:51:03;26.50;;;13.47;;
10142;SDS011;5112;54.088;13.446;2022-12-18T17:01:06;31.50;;;20.50;;
10142;SDS011;5112;54.088;13.446;2022-12-18T17:11:10;26.20;;;14.33;;
10142;SDS011;5112;54.088;13.446;2022-12-18T17:21:12;29.07;;;15.40;;
10142;SDS011;5112;54.088;13.446;2022-12-18T17:31:17;27.57;;;15.17;;
10142;SDS011;5112;54.088;13.446;2022-12-18T17:41:20;28.17;;;15.27;;
10142;SDS011;5112;54.088;13.446;2022-12-18T17:51:24;26.50;;;15.13;;
10142;SDS011;5112;54.088;13.446;2022-12-18T18:01:26;26.87;;;14.20;;
10142;SDS011;5112;54.088;13.446;2022-12-18T18:11:29;28.75;;;21.00;;
10142;SDS011;5112;54.088;13.446;2022-12-18T18:21:48;25.30;;;14.13;;
10142;SDS011;5112;54.088;13.446;2022-12-18T18:31:53;23.07;;;14.20;;
10142;SDS011;5112;54.088;13.446;2022-12-18T18:41:54;25.67;;;14.00;;
10142;SDS011;5112;54.088;13.446;2022-12-18T18:51:58;25.13;;;14.87;;
10142;SDS011;5112;54.088;13.446;2022-12-18T19:02:01;26.10;;;14.53;;
10142;SDS011;5112;54.088;13.446;2022-12-18T19:12:04;26.37;;;15.63;;
10142;SDS011;5112;54.088;13.446;2022-12-18T19:22:24;31.30;;;16.43;;
10142;SDS011;5112;54.088;13.446;2022-12-18T19:32:27;36.23;;;20.13;;
10142;SDS011;5112;54.088;13.446;2022-12-18T19:42:28;38.23;;;19.03;;
10142;SDS011;5112;54.088;13.446;2022-12-18T19:52:31;40.17;;;20.27;;
10142;SDS011;5112;54.088;13.446;2022-12-18T20:02:33;37.50;;;18.27;;
10142;SDS011;5112;54.088;13.446;2022-12-18T20:12:37;33.23;;;17.07;;
10142;SDS011;5112;54.088;13.446;2022-12-18T20:22:38;28.90;;;16.23;;
10142;SDS011;5112;54.088;13.446;2022-12-18T20:32:41;31.23;;;18.13;;
10142;SDS011;5112;54.088;13.446;2022-12-18T20:42:43;32.30;;;17.30;;
10142;SDS011;5112;54.088;13.446;2022-12-18T20:52:47;33.73;;;17.10;;
10142;SDS011;5112;54.088;13.446;2022-12-18T21:02:49;36.53;;;17.53;;
10142;SDS011;5112;54.088;13.446;2022-12-18T21:12:52;30.13;;;17.87;;
10142;SDS011;5112;54.088;13.446;2022-12-18T21:22:53;31.27;;;17.80;;
10142;SDS011;5112;54.088;13.446;2022-12-18T21:32:56;31.63;;;16.57;;
10142;SDS011;5112;54.088;13.446;2022-12-18T21:42:58;33.33;;;16.47;;
10142;SDS011;5112;54.088;13.446;2022-12-18T21:53:19;28.83;;;16.50;;
10142;SDS011;5112;54.088;13.446;2022-12-18T22:03:20;28.40;;;16.97;;
10142;SDS011;5112;54.088;13.446;2022-12-18T22:13:23;32.40;;;22.80;;
10142;SDS011;5112;54.088;13.446;2022-12-18T22:23:25;33.87;;;22.90;;
10142;SDS011;5112;54.088;13.446;2022-12-18T22:33:28;31.23;;;16.67;;
10142;SDS011;5112;54.088;13.446;2022-12-18T22:43:30;36.30;;;25.20;;
10142;SDS011;5112;54.088;13.446;2022-12-18T22:53:33;33.83;;;18.90;;
10142;SDS011;5112;54.088;13.446;2022-12-18T23:03:35;39.23;;;26.20;;
10142;SDS011;5112;54.088;13.446;2022-12-18T23:13:38;36.63;;;25.35;;
10142;SDS011;5112;54.088;13.446;2022-12-18T23:23:40;32.13;;;18.47;;
10142;SDS011;5112;54.088;13.446;2022-12-18T23:33:45;39.30;;;26.57;;
10142;SDS011;5112;54.088;13.446;2022-12-18T23:43:47;34.97;;;19.80;;
10142;SDS011;5112;54.088;13.446;2022-12-18T23:53:51;35.23;;;20.60;;
